createdAt,value
2022-09-05T00:02:03.496Z,101482.06
2022-09-05T00:04:49.019Z,101487.09
2022-09-05T00:07:59.677Z,101484.03
2022-09-05T00:11:12.736Z,101480.06
2022-09-05T00:13:44.941Z,101480.41
2022-09-05T00:16:40.452Z,101469.91
2022-09-05T00:24:20.641Z,101478.25
2022-09-05T00:24:36.937Z,101474.78
2022-09-05T00:26:04.338Z,101480.66
2022-09-05T00:28:53.464Z,101491.06
2022-09-05T00:31:53.834Z,101486.56
2022-09-05T00:34:54.231Z,101486.78
2022-09-05T00:37:35.584Z,101483.94
2022-09-05T00:40:33.726Z,101478.44
2022-09-05T00:43:24.131Z,101486.25
2022-09-05T00:45:55.052Z,101480.75
2022-09-05T00:48:47.372Z,101489.03
2022-09-05T00:51:28.594Z,101486.94
2022-09-05T00:54:15.814Z,101479.19
2022-09-05T00:57:03.967Z,101483.19
2022-09-05T01:00:14.930Z,101484.78
2022-09-05T01:03:22.300Z,101485.72
2022-09-05T01:05:58.440Z,101476.56
2022-09-05T01:08:47.482Z,101471.06
2022-09-05T01:11:27.786Z,101475.09
2022-09-05T01:14:18.830Z,101463.53
2022-09-05T01:17:04.762Z,101467.41
2022-09-05T01:20:04.777Z,101464.53
2022-09-05T01:23:08.737Z,101462.72
2022-09-05T01:26:00.185Z,101461.34
2022-09-05T01:29:17.314Z,101444.06
2022-09-05T01:32:01.527Z,101454.75
2022-09-05T01:34:57.767Z,101449.34
2022-09-05T01:37:49.249Z,101449.63
2022-09-05T01:40:43.553Z,101445.94
2022-09-05T01:43:41.221Z,101454.06
2022-09-05T01:46:36.172Z,101451.91
2022-09-05T01:49:05.625Z,101437.03
2022-09-05T01:52:08.154Z,101444.41
2022-09-05T01:54:56.045Z,101450.66
2022-09-05T01:57:38.627Z,101458.31
2022-09-05T02:04:40.559Z,101461.97
2022-09-05T02:07:40.667Z,101467.25
2022-09-05T02:10:22.607Z,101459.59
2022-09-05T02:13:03.106Z,101461.56
2022-09-05T02:16:08.733Z,101452.28
2022-09-05T02:18:58.542Z,101452.28
2022-09-05T02:21:58.356Z,101457.34
2022-09-05T02:24:37.711Z,101457.84
2022-09-05T02:28:03.768Z,101466.41
2022-09-05T02:30:23.422Z,101449.75
2022-09-05T02:33:10.974Z,101455.16
2022-09-05T02:35:54.801Z,101444.22
2022-09-05T02:41:32.038Z,101450.59
2022-09-05T02:45:10.981Z,101461.00
2022-09-05T02:45:17.796Z,101442.34
2022-09-05T02:48:12.705Z,101450.25
2022-09-05T02:57:30.442Z,101449.44
2022-09-05T02:57:33.107Z,101450.44
2022-09-05T02:57:40.791Z,101449.88
2022-09-05T03:00:01.757Z,101441.13
2022-09-05T03:02:42.684Z,101445.03
2022-09-05T03:05:19.459Z,101448.75
2022-09-05T03:07:54.301Z,101448.53
2022-09-05T03:10:53.195Z,101452.81
2022-09-05T03:13:36.531Z,101455.78
2022-09-05T03:16:52.055Z,101450.59
2022-09-05T03:19:20.139Z,101459.84
2022-09-05T03:22:10.677Z,101454.94
2022-09-05T03:25:01.898Z,101454.41
2022-09-05T03:28:08.394Z,101449.31
2022-09-05T03:30:54.441Z,101452.84
2022-09-05T03:33:37.103Z,101454.25
2022-09-05T03:36:30.806Z,101461.91
2022-09-05T03:39:09.074Z,101461.84
2022-09-05T03:41:55.513Z,101462.50
2022-09-05T06:09:48.008Z,101527.63
2022-09-05T06:16:32.513Z,101544.50
2022-09-05T06:41:38.501Z,101549.34
2022-09-05T06:47:56.907Z,101539.91
2022-09-05T06:51:08.369Z,101541.16
2022-09-05T06:54:13.027Z,101544.91
2022-09-05T06:57:00.975Z,101548.41
2022-09-05T06:59:55.100Z,101556.78
2022-09-05T07:03:06.549Z,101557.78
2022-09-05T07:05:55.654Z,101560.19
2022-09-05T07:09:42.350Z,101569.22
2022-09-05T07:14:02.535Z,101559.31
2022-09-05T07:25:27.408Z,101554.66
2022-09-05T07:31:37.648Z,101572.28
2022-09-05T07:34:33.109Z,101569.09
2022-09-05T07:37:27.426Z,101574.63
2022-09-05T07:56:59.519Z,101589.88
2022-09-05T07:58:17.392Z,101591.47
2022-09-05T08:01:15.518Z,101598.66
2022-09-05T08:05:07.618Z,101593.34
2022-09-05T08:08:10.720Z,101585.78
2022-09-05T08:12:27.661Z,101598.03
2022-09-05T08:16:02.895Z,101597.88
2022-09-05T08:18:30.059Z,101605.94
2022-09-05T08:21:27.134Z,101595.94
2022-09-05T08:24:49.628Z,101606.84
2022-09-05T08:27:45.481Z,101597.81
2022-09-05T08:30:26.852Z,101596.34
2022-09-05T08:56:17.005Z,101575.53
2022-09-05T09:00:20.782Z,101574.34
2022-09-05T09:08:13.223Z,101568.56
2022-09-05T09:10:49.331Z,101567.28
2022-09-05T10:45:03.762Z,101488.41
2022-09-05T10:48:11.506Z,101488.53
2022-09-05T10:50:49.607Z,101480.16
2022-09-05T10:53:52.003Z,101488.09
2022-09-05T10:57:35.680Z,101472.00
2022-09-05T11:02:21.202Z,101473.38
2022-09-05T11:03:55.840Z,101456.22
2022-09-05T11:06:46.275Z,101469.28
2022-09-05T11:09:19.604Z,101465.09
2022-09-05T11:12:01.170Z,101460.72
2022-09-05T11:14:56.462Z,101455.31
2022-09-05T11:20:54.149Z,101450.47
2022-09-05T11:23:59.470Z,101429.78
2022-09-05T11:27:25.101Z,101434.25
2022-09-05T11:30:45.548Z,101429.34
2022-09-05T11:50:50.570Z,101413.78
2022-09-05T11:50:52.676Z,101409.09
2022-09-05T12:21:46.968Z,101389.22
2022-09-05T12:41:36.240Z,101380.25
2022-09-05T12:44:38.039Z,101376.88
2022-09-05T12:51:45.123Z,101367.53
2022-09-05T12:54:24.816Z,101362.38
2022-09-05T13:01:08.112Z,101356.69
2022-09-05T13:08:59.405Z,101335.00
2022-09-05T13:22:11.829Z,101323.81
2022-09-05T13:25:27.250Z,101314.09
2022-09-05T13:28:11.876Z,101308.44
2022-09-05T13:38:01.630Z,101290.72
2022-09-05T13:56:40.301Z,101287.16
2022-09-05T14:12:45.722Z,101262.00
2022-09-05T14:15:42.970Z,101255.50
2022-09-05T14:18:55.538Z,101249.03
2022-09-05T14:21:27.883Z,101239.72
2022-09-05T14:24:27.463Z,101253.84
2022-09-05T14:27:03.118Z,101255.28
2022-09-05T14:30:35.566Z,101255.06
2022-09-05T14:37:43.566Z,101235.22
2022-09-05T14:37:43.958Z,101249.94
2022-09-05T14:40:46.361Z,101236.69
2022-09-05T14:43:56.239Z,101232.00
2022-09-05T14:46:38.703Z,101230.34
2022-09-05T14:49:18.580Z,101227.28
2022-09-05T14:51:48.542Z,101213.75
2022-09-05T14:59:34.011Z,101212.53
2022-09-05T15:02:57.900Z,101206.66
2022-09-05T15:04:35.397Z,101208.84
2022-09-05T15:07:15.946Z,101207.44
2022-09-05T15:12:21.379Z,101205.22
2022-09-05T15:12:45.924Z,101202.91
2022-09-05T15:15:43.438Z,101210.75
2022-09-05T15:18:40.413Z,101200.91
2022-09-05T15:21:35.268Z,101209.28
2022-09-05T15:24:36.900Z,101201.09
2022-09-05T15:27:05.495Z,101193.25
2022-09-05T15:29:35.383Z,101202.94
2022-09-05T15:32:24.960Z,101187.03
2022-09-05T15:35:09.275Z,101193.06
2022-09-05T15:37:45.150Z,101194.84
2022-09-05T15:40:23.106Z,101195.88
2022-09-05T15:42:58.994Z,101196.66
2022-09-05T15:46:08.490Z,101196.34
2022-09-05T15:48:48.347Z,101191.63
2022-09-05T15:52:27.298Z,101195.59
2022-09-05T15:55:10.667Z,101195.94
2022-09-05T15:57:41.374Z,101191.00
2022-09-05T16:00:30.860Z,101195.16
2022-09-05T16:03:40.956Z,101203.53
2022-09-05T16:10:36.715Z,101198.53
2022-09-05T16:10:44.907Z,101195.63
2022-09-05T16:12:48.312Z,101196.28
2022-09-05T16:19:25.019Z,101190.13
2022-09-05T16:23:25.480Z,101208.53
2022-09-05T16:23:30.259Z,101201.56
2022-09-05T16:24:59.465Z,101206.22
2022-09-05T16:27:44.262Z,101208.97
2022-09-05T16:30:38.230Z,101194.72
2022-09-05T16:33:29.666Z,101197.22
2022-09-05T16:36:15.998Z,101198.91
2022-09-05T16:39:01.537Z,101190.47
2022-09-05T16:41:53.500Z,101185.94
2022-09-05T16:45:58.692Z,101195.84
2022-09-05T16:48:31.487Z,101184.13
2022-09-05T16:51:37.975Z,101187.41
2022-09-05T16:59:02.562Z,101189.84
2022-09-05T17:02:55.765Z,101185.09
2022-09-05T17:06:04.626Z,101190.19
2022-09-05T17:16:30.748Z,101185.53
2022-09-05T17:20:05.667Z,101195.28
2022-09-05T17:29:32.368Z,101185.53
2022-09-05T17:34:24.627Z,101188.16
2022-09-05T17:37:32.514Z,101193.97
2022-09-05T19:10:36.907Z,101230.78
2022-09-05T20:18:27.191Z,101238.59
2022-09-05T21:28:47.271Z,101254.28
2022-09-05T22:56:01.747Z,101248.25
2022-09-05T23:02:34.179Z,101257.03
2022-09-05T23:05:09.236Z,101248.56
2022-09-05T23:09:09.560Z,101249.16
2022-09-05T23:11:42.151Z,101245.41
2022-09-05T23:14:29.525Z,101241.56
2022-09-05T23:16:57.596Z,101236.13
2022-09-05T23:19:32.466Z,101225.72
2022-09-05T23:22:00.405Z,101232.75
2022-09-05T23:33:24.267Z,101233.41
2022-09-05T23:36:03.849Z,101234.44
2022-09-05T23:38:32.386Z,101225.63
2022-09-05T23:41:06.097Z,101227.38
2022-09-05T23:44:02.007Z,101239.75
2022-09-05T23:46:30.130Z,101224.91
2022-09-05T23:48:58.549Z,101229.00
2022-09-05T23:51:27.461Z,101240.00
2022-09-05T23:53:59.836Z,101233.25
2022-09-05T23:56:32.327Z,101228.13
2022-09-05T23:59:00.428Z,101236.19
